createdAt,value
2017-07-11T00:02:09.035Z,94.10
2017-07-11T00:04:36.535Z,94.10
2017-07-11T00:07:04.022Z,93.80
2017-07-11T00:09:31.523Z,93.90
2017-07-11T00:11:59.788Z,93.40
2017-07-11T00:14:27.277Z,93.60
2017-07-11T00:16:54.764Z,93.70
2017-07-11T00:19:22.266Z,93.70
2017-07-11T00:21:50.506Z,93.50
2017-07-11T00:24:17.987Z,93.40
2017-07-11T00:26:45.487Z,93.50
2017-07-11T00:29:12.974Z,93.50
2017-07-11T00:31:40.460Z,93.90
2017-07-11T00:34:07.947Z,93.90
2017-07-11T00:36:36.196Z,93.30
2017-07-11T00:39:03.694Z,93.30
2017-07-11T00:41:31.187Z,93.80
2017-07-11T00:43:58.661Z,93.80
2017-07-11T00:46:26.814Z,93.90
2017-07-11T00:48:54.294Z,94.20
2017-07-11T00:51:21.775Z,93.90
2017-07-11T00:53:50.873Z,94.30
2017-07-11T00:56:19.120Z,94.00
2017-07-11T00:58:46.625Z,94.20
2017-07-11T01:01:14.100Z,94.20
2017-07-11T01:03:41.594Z,94.40
2017-07-11T01:06:09.079Z,94.80
2017-07-11T01:08:37.349Z,94.40
2017-07-11T01:11:04.824Z,94.40
2017-07-11T01:13:33.086Z,94.40
2017-07-11T01:16:02.023Z,95.00
2017-07-11T01:18:29.502Z,94.70
2017-07-11T01:20:56.974Z,94.40
2017-07-11T01:23:25.308Z,94.40
2017-07-11T01:25:52.783Z,94.60
2017-07-11T01:28:20.270Z,94.10
2017-07-11T01:30:47.755Z,94.10
2017-07-11T01:33:16.023Z,94.30
2017-07-11T01:35:44.280Z,94.40
2017-07-11T01:38:11.770Z,94.40
2017-07-11T01:40:40.025Z,94.30
2017-07-11T01:43:07.507Z,94.20
2017-07-11T01:45:35.766Z,94.10
2017-07-11T01:48:04.011Z,94.20
2017-07-11T01:50:31.511Z,94.20
2017-07-11T01:52:59.767Z,94.70
2017-07-11T01:55:28.041Z,94.70
2017-07-11T01:57:55.527Z,94.50
2017-07-11T02:00:23.013Z,94.40
2017-07-11T02:02:50.513Z,94.40
2017-07-11T02:05:19.405Z,94.10
2017-07-11T02:07:46.899Z,94.80
2017-07-11T02:10:14.371Z,94.50
2017-07-11T02:12:41.860Z,94.40
2017-07-11T02:15:09.336Z,94.00
2017-07-11T02:17:36.850Z,94.50
2017-07-11T02:20:04.322Z,94.40
2017-07-11T02:22:31.826Z,94.30
2017-07-11T02:25:00.072Z,94.50
2017-07-11T02:27:27.570Z,94.40
2017-07-11T02:29:55.876Z,94.30
2017-07-11T02:32:23.355Z,94.30
2017-07-11T02:34:50.851Z,94.20
2017-07-11T02:37:19.108Z,93.90
2017-07-11T02:39:47.112Z,93.90
2017-07-11T02:42:14.594Z,94.40
2017-07-11T02:44:42.084Z,94.60
2017-07-11T02:47:09.574Z,94.30
2017-07-11T02:49:38.750Z,94.50
2017-07-11T02:52:06.239Z,94.40
2017-07-11T02:54:34.500Z,94.20
2017-07-11T02:57:02.753Z,94.40
2017-07-11T02:59:30.237Z,94.30
2017-07-11T03:01:58.494Z,94.20
2017-07-11T03:04:25.974Z,94.20
2017-07-11T03:06:54.243Z,94.10
2017-07-11T03:09:22.483Z,94.40
2017-07-11T03:11:50.002Z,94.30
2017-07-11T03:14:17.471Z,94.40
2017-07-11T03:16:44.963Z,94.10
2017-07-11T03:19:12.445Z,94.10
2017-07-11T03:21:39.943Z,94.10
2017-07-11T03:24:07.419Z,93.90
2017-07-11T03:26:34.893Z,93.90
2017-07-11T03:29:02.385Z,94.00
2017-07-11T03:31:30.629Z,94.20
2017-07-11T03:33:58.120Z,94.10
2017-07-11T03:36:26.367Z,94.20
2017-07-11T03:38:53.867Z,94.10
2017-07-11T03:41:21.334Z,94.20
2017-07-11T03:43:48.836Z,94.20
2017-07-11T03:46:16.306Z,94.50
2017-07-11T03:48:43.786Z,94.30
2017-07-11T03:51:12.037Z,94.30
2017-07-11T03:53:39.542Z,94.20
2017-07-11T03:56:07.025Z,94.50
2017-07-11T03:58:34.515Z,94.30
2017-07-11T04:01:02.019Z,94.10
2017-07-11T04:03:29.587Z,94.10
2017-07-11T04:05:57.079Z,94.10
2017-07-11T04:08:24.563Z,94.30
2017-07-11T04:10:52.821Z,94.50
2017-07-11T04:13:20.287Z,94.20
2017-07-11T04:15:47.780Z,94.20
2017-07-11T04:18:15.254Z,94.00
2017-07-11T04:20:42.754Z,94.20
2017-07-11T04:23:10.226Z,93.70
2017-07-11T04:25:38.493Z,94.20
2017-07-11T04:28:05.988Z,93.90
2017-07-11T04:30:33.462Z,93.90
2017-07-11T04:33:00.966Z,93.90
2017-07-11T04:35:28.427Z,93.80
2017-07-11T04:37:55.930Z,93.50
2017-07-11T04:40:23.408Z,93.60
2017-07-11T04:42:50.924Z,93.60
2017-07-11T04:45:19.164Z,93.40
2017-07-11T04:47:46.682Z,93.30
2017-07-11T04:50:14.167Z,93.30
2017-07-11T04:52:41.684Z,93.70
2017-07-11T04:55:09.166Z,93.50
2017-07-11T04:57:42.538Z,93.80
2017-07-11T05:00:10.011Z,93.40
2017-07-11T05:02:37.493Z,93.60
2017-07-11T05:05:05.009Z,93.70
2017-07-11T05:07:32.497Z,94.20
2017-07-11T05:09:59.989Z,93.60
2017-07-11T05:12:27.471Z,93.80
2017-07-11T05:14:55.725Z,93.30
2017-07-11T05:20:16.450Z,93.40
2017-07-11T05:22:44.728Z,93.30
2017-07-11T05:25:12.250Z,93.20
2017-07-11T05:27:39.734Z,93.30
2017-07-11T05:30:07.997Z,93.00
2017-07-11T05:32:35.513Z,92.90
2017-07-11T05:35:02.984Z,92.90
2017-07-11T05:37:30.484Z,93.30
2017-07-11T05:39:58.077Z,92.80
2017-07-11T05:42:25.578Z,92.70
2017-07-11T05:44:53.059Z,92.80
2017-07-11T05:47:20.635Z,92.90
2017-07-11T05:49:54.563Z,92.80
2017-07-11T05:52:22.843Z,92.80
2017-07-11T05:54:50.322Z,92.70
2017-07-11T05:57:17.838Z,92.60
2017-07-11T05:59:46.134Z,92.90
2017-07-11T06:02:13.612Z,92.60
2017-07-11T06:04:41.120Z,92.50
2017-07-11T06:07:08.603Z,92.40
2017-07-11T06:09:36.857Z,93.10
2017-07-11T06:12:05.109Z,92.80
2017-07-11T06:14:32.617Z,92.80
2017-07-11T06:17:00.100Z,92.60
2017-07-11T06:19:27.603Z,92.60
2017-07-11T06:21:55.077Z,92.80
2017-07-11T06:24:23.359Z,93.10
2017-07-11T06:26:51.595Z,92.80
2017-07-11T06:29:25.576Z,92.70
2017-07-11T06:31:53.079Z,92.80
2017-07-11T06:34:20.671Z,92.30
2017-07-11T06:36:48.186Z,92.10
2017-07-11T06:39:15.702Z,91.90
2017-07-11T06:41:43.203Z,92.20
2017-07-11T06:44:10.685Z,92.00
2017-07-11T06:46:38.942Z,92.00
2017-07-11T06:49:06.429Z,91.70
2017-07-11T06:51:33.932Z,91.20
2017-07-11T06:54:01.459Z,91.10
2017-07-11T06:56:28.952Z,90.40
2017-07-11T06:58:57.372Z,91.30
2017-07-11T07:01:24.869Z,91.20
2017-07-11T07:03:52.438Z,90.80
2017-07-11T07:06:19.949Z,90.80
2017-07-11T07:08:48.199Z,90.30
2017-07-11T07:11:15.688Z,90.30
2017-07-11T07:13:43.966Z,90.30
2017-07-11T07:16:12.230Z,90.00
2017-07-11T07:18:39.717Z,90.00
2017-07-11T07:21:07.642Z,88.70
2017-07-11T07:23:35.155Z,89.00
2017-07-11T07:26:02.636Z,88.50
2017-07-11T07:28:30.128Z,88.50
2017-07-11T07:30:57.631Z,87.40
2017-07-11T07:33:25.111Z,88.30
2017-07-11T07:35:52.594Z,87.10
2017-07-11T07:38:20.062Z,86.10
2017-07-11T07:40:47.557Z,86.80
2017-07-11T07:43:15.099Z,86.50
2017-07-11T07:45:42.642Z,85.60
2017-07-11T07:48:10.120Z,84.80
2017-07-11T07:50:37.611Z,85.60
2017-07-11T07:53:05.175Z,82.40
2017-07-11T07:55:32.708Z,82.90
2017-07-11T07:58:00.217Z,84.60
2017-07-11T08:00:27.699Z,85.00
2017-07-11T08:02:55.953Z,85.70
2017-07-11T08:05:23.461Z,85.70
2017-07-11T08:10:46.171Z,82.80
2017-07-11T08:13:13.658Z,83.00
2017-07-11T08:15:41.917Z,81.90
2017-07-11T08:18:10.184Z,81.80
2017-07-11T08:20:37.673Z,81.40
2017-07-11T08:23:05.189Z,81.70
2017-07-11T08:25:32.675Z,81.70
2017-07-11T08:28:00.919Z,81.40
2017-07-11T08:30:28.410Z,80.70
2017-07-11T08:32:55.887Z,81.10
2017-07-11T08:35:24.262Z,82.20
2017-07-11T08:37:52.532Z,82.20
2017-07-11T08:40:20.832Z,80.70
2017-07-11T08:42:49.146Z,80.70
2017-07-11T08:45:16.643Z,81.40
2017-07-11T08:47:44.901Z,81.00
2017-07-11T08:50:12.409Z,80.90
2017-07-11T08:52:39.913Z,81.90
2017-07-11T08:55:07.401Z,81.90
2017-07-11T08:57:35.678Z,80.80
2017-07-11T09:00:03.932Z,81.20
2017-07-11T09:02:31.422Z,81.20
2017-07-11T09:04:58.917Z,81.00
2017-07-11T09:07:26.401Z,80.70
2017-07-11T09:09:53.874Z,82.40
2017-07-11T09:12:22.149Z,81.30
2017-07-11T09:14:50.400Z,81.00
2017-07-11T09:17:17.918Z,81.00
2017-07-11T09:19:51.913Z,79.70
2017-07-11T09:22:19.422Z,80.40
2017-07-11T09:24:47.531Z,79.70
2017-07-11T09:27:15.088Z,79.20
2017-07-11T09:29:43.367Z,78.50
2017-07-11T09:32:11.619Z,77.90
2017-07-11T09:34:39.121Z,77.90
2017-07-11T09:37:06.635Z,77.90
2017-07-11T09:39:34.150Z,76.70
2017-07-11T09:42:01.635Z,75.90
2017-07-11T09:44:29.145Z,76.50
2017-07-11T09:46:56.631Z,77.70
2017-07-11T09:49:24.122Z,75.90
2017-07-11T09:51:51.623Z,75.70
2017-07-11T09:54:19.115Z,76.90
2017-07-11T09:56:46.636Z,76.50
2017-07-11T09:59:14.141Z,77.70
2017-07-11T10:01:41.613Z,77.20
2017-07-11T10:04:09.103Z,77.90
2017-07-11T10:06:37.365Z,78.50
2017-07-11T10:09:05.627Z,78.10
2017-07-11T10:11:33.135Z,78.10
2017-07-11T10:14:00.634Z,78.50
2017-07-11T10:16:28.119Z,77.40
2017-07-11T10:18:56.390Z,79.60
2017-07-11T10:21:24.677Z,78.30
2017-07-11T10:23:52.928Z,76.90
2017-07-11T10:26:20.459Z,76.80
2017-07-11T10:28:48.770Z,76.20
2017-07-11T10:31:16.271Z,76.20
2017-07-11T10:33:43.762Z,75.70
2017-07-11T10:36:11.246Z,77.20
2017-07-11T10:38:39.599Z,76.20
2017-07-11T10:41:07.096Z,75.60
2017-07-11T10:43:34.588Z,76.30
2017-07-11T10:46:02.087Z,76.80
2017-07-11T10:51:23.235Z,78.00
2017-07-11T10:53:53.654Z,78.00
2017-07-11T10:56:21.144Z,77.60
2017-07-11T10:58:48.622Z,76.60
2017-07-11T11:01:16.127Z,77.20
2017-07-11T11:03:43.628Z,76.00
2017-07-11T11:06:11.124Z,76.20
2017-07-11T11:08:39.110Z,76.60
2017-07-11T11:11:07.795Z,71.40
2017-07-11T11:13:41.100Z,69.70
2017-07-11T11:16:09.392Z,68.00
2017-07-11T11:18:37.637Z,69.10
2017-07-11T11:21:05.127Z,69.00
2017-07-11T11:23:33.403Z,69.00
2017-07-11T11:26:01.644Z,68.30
2017-07-11T11:28:29.124Z,68.10
2017-07-11T11:30:57.388Z,68.20
2017-07-11T11:33:24.854Z,67.30
2017-07-11T11:35:53.115Z,67.60
2017-07-11T11:38:20.632Z,66.80
2017-07-11T11:40:48.111Z,67.80
2017-07-11T11:43:15.591Z,66.10
2017-07-11T11:45:43.123Z,66.00
2017-07-11T11:48:10.607Z,66.60
2017-07-11T11:50:38.093Z,66.60
2017-07-11T11:53:06.383Z,66.80
2017-07-11T11:55:33.858Z,66.80
2017-07-11T11:58:01.335Z,66.10
2017-07-11T12:00:28.827Z,66.10
2017-07-11T12:02:57.615Z,67.50
2017-07-11T12:05:25.219Z,67.30
2017-07-11T12:07:52.705Z,66.20
2017-07-11T12:10:20.191Z,67.30
2017-07-11T12:12:47.768Z,66.20
2017-07-11T12:15:15.296Z,66.10
2017-07-11T12:17:42.786Z,67.30
2017-07-11T12:20:10.299Z,68.10
2017-07-11T12:22:37.786Z,67.30
2017-07-11T12:25:06.045Z,68.20
2017-07-11T12:27:33.554Z,68.10
2017-07-11T12:30:01.035Z,69.00
2017-07-11T12:32:29.254Z,67.40
2017-07-11T12:34:56.739Z,66.80
2017-07-11T12:37:24.251Z,65.50
2017-07-11T12:42:45.177Z,62.30
2017-07-11T12:45:13.447Z,64.60
2017-07-11T12:47:40.941Z,64.40
2017-07-11T12:50:09.223Z,63.60
2017-07-11T12:52:36.720Z,63.10
2017-07-11T12:55:04.216Z,64.90
2017-07-11T12:57:31.703Z,64.90
2017-07-11T12:59:59.191Z,64.90
2017-07-11T13:02:26.679Z,65.30
2017-07-11T13:04:54.180Z,64.30
2017-07-11T13:07:21.664Z,65.20
2017-07-11T13:09:49.167Z,65.40
2017-07-11T13:12:17.418Z,67.60
2017-07-11T13:14:44.894Z,67.60
2017-07-11T13:17:12.408Z,66.20
2017-07-11T13:19:39.889Z,68.50
2017-07-11T13:22:08.236Z,68.10
2017-07-11T13:24:35.724Z,67.70
2017-07-11T13:27:03.206Z,67.10
2017-07-11T13:29:30.681Z,68.80
2017-07-11T13:31:58.975Z,71.10
2017-07-11T13:34:26.535Z,71.10
2017-07-11T13:36:54.044Z,70.30
2017-07-11T13:39:21.526Z,70.20
2017-07-11T13:41:49.791Z,69.20
2017-07-11T13:44:17.312Z,69.20
2017-07-11T13:46:44.798Z,69.90
2017-07-11T13:49:12.306Z,68.50
2017-07-11T13:51:39.806Z,69.90
2017-07-11T13:54:07.301Z,69.50
2017-07-11T13:56:35.557Z,70.50
2017-07-11T13:59:03.051Z,70.60
2017-07-11T14:01:30.539Z,69.60
2017-07-11T14:03:58.981Z,68.90
2017-07-11T14:06:26.461Z,69.30
2017-07-11T14:08:53.960Z,67.70
2017-07-11T14:11:21.470Z,69.50
2017-07-11T14:13:48.951Z,68.60
2017-07-11T14:16:16.462Z,68.30
2017-07-11T14:18:44.735Z,69.80
2017-07-11T14:21:13.013Z,69.60
2017-07-11T14:23:41.258Z,70.90
2017-07-11T14:26:08.784Z,71.40
2017-07-11T14:28:36.276Z,70.60
2017-07-11T14:31:03.759Z,71.40
2017-07-11T14:33:32.010Z,71.30
2017-07-11T14:35:59.500Z,71.30
2017-07-11T14:38:27.837Z,71.60
2017-07-11T14:40:55.318Z,71.60
2017-07-11T14:43:22.807Z,70.00
2017-07-11T14:45:50.283Z,70.40
2017-07-11T14:48:17.784Z,70.70
2017-07-11T14:50:45.261Z,69.40
2017-07-11T14:53:12.794Z,68.30
2017-07-11T14:55:40.278Z,68.10
2017-07-11T14:58:09.360Z,67.70
2017-07-11T15:00:36.837Z,67.50
2017-07-11T15:03:24.502Z,66.40
2017-07-11T15:05:51.988Z,66.40
2017-07-11T15:08:19.464Z,65.40
2017-07-11T15:10:47.240Z,66.50
2017-07-11T15:13:15.487Z,64.60
2017-07-11T15:15:43.005Z,64.30
2017-07-11T15:18:10.509Z,63.10
2017-07-11T15:20:38.026Z,62.70
2017-07-11T15:23:05.509Z,63.10
2017-07-11T15:25:33.001Z,62.30
2017-07-11T15:28:01.265Z,59.70
2017-07-11T15:30:28.766Z,59.30
2017-07-11T15:32:56.258Z,60.50
2017-07-11T15:35:23.780Z,60.40
2017-07-11T15:37:51.266Z,60.60
2017-07-11T15:40:18.783Z,60.70
2017-07-11T15:42:47.063Z,59.80
2017-07-11T15:45:14.550Z,59.70
2017-07-11T15:47:42.059Z,61.00
2017-07-11T15:50:09.541Z,60.70
2017-07-11T15:52:37.043Z,61.70
2017-07-11T15:55:04.529Z,62.40
2017-07-11T15:57:32.017Z,63.20
2017-07-11T15:59:59.507Z,63.10
2017-07-11T16:02:27.036Z,62.80
2017-07-11T16:04:54.544Z,62.70
2017-07-11T16:07:22.036Z,61.80
2017-07-11T16:09:50.308Z,63.30
2017-07-11T16:12:18.563Z,64.00
2017-07-11T16:14:46.043Z,63.30
2017-07-11T16:17:14.296Z,64.40
2017-07-11T16:19:41.779Z,64.30
2017-07-11T16:22:10.049Z,63.00
2017-07-11T16:24:37.538Z,63.00
2017-07-11T16:27:05.029Z,63.70
2017-07-11T16:29:32.520Z,62.70
2017-07-11T16:32:00.770Z,62.40
2017-07-11T16:34:28.280Z,62.40
2017-07-11T16:36:55.751Z,63.30
2017-07-11T16:39:23.270Z,62.10
2017-07-11T16:41:50.745Z,62.70
2017-07-11T16:44:18.997Z,63.80
2017-07-11T16:46:46.499Z,63.70
2017-07-11T16:49:14.011Z,64.10
2017-07-11T16:51:41.511Z,66.10
2017-07-11T16:54:08.979Z,65.80
2017-07-11T16:56:36.468Z,66.20
2017-07-11T16:59:03.924Z,66.50
2017-07-11T17:01:31.430Z,67.40
2017-07-11T17:03:58.981Z,66.70
2017-07-11T17:06:27.226Z,66.80
2017-07-11T17:08:54.708Z,66.80
2017-07-11T17:11:22.982Z,66.90
2017-07-11T17:13:51.232Z,66.90
2017-07-11T17:16:18.710Z,66.90
2017-07-11T17:18:46.207Z,66.20
2017-07-11T17:21:13.713Z,66.30
2017-07-11T17:23:41.197Z,67.10
2017-07-11T17:26:09.449Z,67.50
2017-07-11T17:28:36.935Z,67.50
2017-07-11T17:31:05.175Z,66.70
2017-07-11T17:33:32.693Z,66.80
2017-07-11T17:36:00.462Z,62.30
2017-07-11T17:38:27.972Z,59.50
2017-07-11T17:40:56.217Z,55.70
2017-07-11T17:43:23.715Z,55.40
2017-07-11T17:45:51.975Z,55.50
2017-07-11T17:48:19.455Z,55.40
2017-07-11T17:50:47.706Z,58.70
2017-07-11T17:53:15.184Z,58.70
2017-07-11T17:55:43.459Z,62.30
2017-07-11T17:58:11.706Z,63.30
2017-07-11T18:00:39.191Z,63.30
2017-07-11T18:03:07.451Z,65.80
2017-07-11T18:05:34.931Z,65.80
2017-07-11T18:08:03.175Z,68.00
2017-07-11T18:10:30.703Z,67.80
2017-07-11T18:12:58.181Z,69.90
2017-07-11T18:15:25.667Z,70.30
2017-07-11T18:17:53.926Z,71.20
2017-07-11T18:20:21.401Z,71.10
2017-07-11T18:22:49.646Z,73.30
2017-07-11T18:25:17.134Z,72.40
2017-07-11T18:27:44.624Z,73.20
2017-07-11T18:30:12.103Z,73.30
2017-07-11T18:32:39.612Z,73.90
2017-07-11T18:35:07.887Z,74.40
2017-07-11T18:37:36.164Z,75.20
2017-07-11T18:40:04.407Z,75.30
2017-07-11T18:42:31.894Z,74.60
2017-07-11T18:44:59.391Z,75.10
2017-07-11T18:47:26.886Z,74.80
2017-07-11T18:49:54.383Z,75.30
2017-07-11T18:52:22.838Z,75.80
2017-07-11T18:54:50.334Z,75.80
2017-07-11T18:57:17.953Z,75.90
2017-07-11T18:59:45.438Z,75.90
2017-07-11T19:02:13.702Z,76.00
2017-07-11T19:04:41.215Z,76.00
2017-07-11T19:07:08.698Z,75.80
2017-07-11T19:09:36.210Z,76.10
2017-07-11T19:12:03.697Z,75.60
2017-07-11T19:14:31.185Z,75.70
2017-07-11T19:16:58.684Z,75.80
2017-07-11T19:19:26.169Z,75.90
2017-07-11T19:21:53.667Z,75.70
2017-07-11T19:24:21.173Z,75.90
2017-07-11T19:26:48.682Z,75.40
2017-07-11T19:29:16.157Z,76.00
2017-07-11T19:31:43.677Z,76.00
2017-07-11T19:34:11.213Z,76.00
2017-07-11T19:36:38.706Z,76.10
2017-07-11T19:39:06.195Z,75.80
2017-07-11T19:41:33.677Z,76.30
2017-07-11T19:44:01.181Z,76.30
2017-07-11T19:46:28.762Z,76.40
2017-07-11T19:48:57.020Z,76.40
2017-07-11T19:51:24.494Z,76.40
2017-07-11T19:53:58.272Z,76.70
2017-07-11T19:56:25.743Z,77.00
2017-07-11T19:58:53.260Z,77.10
2017-07-11T20:01:20.740Z,77.30
2017-07-11T20:03:48.205Z,77.50
2017-07-11T20:06:15.722Z,77.80
2017-07-11T20:08:43.213Z,78.20
2017-07-11T20:11:10.713Z,78.20
2017-07-11T20:13:38.191Z,78.60
2017-07-11T20:16:05.689Z,79.10
2017-07-11T20:18:33.163Z,79.20
2017-07-11T20:21:00.655Z,79.30
2017-07-11T20:23:28.132Z,79.90
2017-07-11T20:25:55.647Z,79.90
2017-07-11T20:28:23.903Z,79.90
2017-07-11T20:30:51.417Z,79.90
2017-07-11T20:33:18.952Z,80.00
2017-07-11T20:35:47.211Z,80.60
2017-07-11T20:38:14.697Z,80.50
2017-07-11T20:40:42.180Z,80.60
2017-07-11T20:43:09.694Z,80.80
2017-07-11T20:45:37.945Z,81.00
2017-07-11T20:48:05.479Z,81.00
2017-07-11T20:50:32.969Z,81.30
2017-07-11T20:53:00.461Z,81.50
2017-07-11T20:55:27.961Z,81.50
2017-07-11T20:57:55.451Z,81.70
2017-07-11T21:00:22.950Z,81.80
2017-07-11T21:02:50.416Z,82.00
2017-07-11T21:05:17.952Z,82.00
2017-07-11T21:07:46.214Z,82.70
2017-07-11T21:10:14.499Z,82.80
2017-07-11T21:12:42.755Z,83.10
2017-07-11T21:15:10.244Z,83.00
2017-07-11T21:17:37.738Z,83.70
2017-07-11T21:20:05.215Z,83.10
2017-07-11T21:22:32.811Z,83.00
2017-07-11T21:25:01.061Z,83.30
2017-07-11T21:27:28.558Z,83.30
2017-07-11T21:30:02.545Z,83.30
2017-07-11T21:32:34.622Z,83.70
2017-07-11T21:35:02.875Z,83.60
2017-07-11T21:37:30.346Z,83.60
2017-07-11T21:39:58.617Z,84.20
2017-07-11T21:42:26.855Z,84.50
2017-07-11T21:44:54.359Z,84.30
2017-07-11T21:47:22.614Z,84.50
2017-07-11T21:49:50.098Z,84.40
2017-07-11T21:52:18.340Z,84.40
2017-07-11T21:54:45.876Z,84.30
2017-07-11T21:57:13.382Z,84.80
2017-07-11T21:59:41.632Z,85.00
2017-07-11T22:02:09.126Z,84.90
2017-07-11T22:04:36.694Z,85.40
2017-07-11T22:07:04.559Z,85.30
2017-07-11T22:09:32.038Z,85.10
2017-07-11T22:11:59.520Z,85.60
2017-07-11T22:14:26.997Z,85.70
2017-07-11T22:16:54.491Z,85.70
2017-07-11T22:19:21.991Z,85.90
2017-07-11T22:21:49.499Z,86.10
2017-07-11T22:24:16.999Z,86.10
2017-07-11T22:26:44.491Z,86.10
2017-07-11T22:29:11.988Z,86.10
2017-07-11T22:31:39.496Z,86.10
2017-07-11T22:34:07.013Z,86.10
2017-07-11T22:36:34.502Z,86.40
2017-07-11T22:39:01.996Z,86.30
2017-07-11T22:41:30.375Z,87.10
2017-07-11T22:43:58.631Z,86.40
2017-07-11T22:46:26.107Z,86.40
2017-07-11T22:48:54.374Z,86.70
2017-07-11T22:51:22.623Z,86.80
2017-07-11T22:53:56.686Z,86.60
2017-07-11T22:56:24.183Z,86.60
2017-07-11T22:58:51.664Z,86.60
2017-07-11T23:01:19.165Z,86.60
2017-07-11T23:03:46.658Z,86.50
2017-07-11T23:06:14.152Z,86.90
2017-07-11T23:08:41.720Z,86.80
2017-07-11T23:11:09.243Z,86.60
2017-07-11T23:13:36.732Z,86.90
2017-07-11T23:16:04.974Z,87.30
2017-07-11T23:18:32.447Z,86.70
2017-07-11T23:20:59.943Z,86.80
2017-07-11T23:23:27.424Z,87.10
2017-07-11T23:25:54.916Z,87.00
2017-07-11T23:28:22.401Z,87.00
2017-07-11T23:30:50.637Z,87.10
2017-07-11T23:33:18.615Z,87.10
2017-07-11T23:35:46.094Z,87.40
2017-07-11T23:38:13.590Z,87.50
2017-07-11T23:40:41.077Z,87.60
2017-07-11T23:43:08.556Z,87.80
2017-07-11T23:45:36.049Z,87.70
2017-07-11T23:48:03.532Z,87.70
2017-07-11T23:50:31.018Z,87.70
2017-07-11T23:52:58.497Z,87.90
2017-07-11T23:55:26.932Z,88.10
2017-07-11T23:57:54.404Z,88.00
